sensor_id;sensor_type;location;lat;lon;timestamp;P1;durP1;ratioP1;P2;durP2;ratioP2
17832;SDS011;9041;49.718;21.798;2023-04-27T00:01:05;28.27;;;10.43;;
17832;SDS011;9041;49.718;21.798;2023-04-27T00:03:32;17.67;;;9.83;;
17832;SDS011;9041;49.718;21.798;2023-04-27T00:05:59;22.47;;;9.63;;
17832;SDS011;9041;49.718;21.798;2023-04-27T00:08:27;28.63;;;10.27;;
17832;SDS011;9041;49.718;21.798;2023-04-27T00:10:54;26.80;;;10.00;;
17832;SDS011;9041;49.718;21.798;2023-04-27T00:13:21;25.47;;;10.40;;
17832;SDS011;9041;49.718;21.798;2023-04-27T00:15:48;26.03;;;9.57;;
17832;SDS011;9041;49.718;21.798;2023-04-27T00:18:15;22.70;;;8.73;;
17832;SDS011;9041;49.718;21.798;2023-04-27T00:20:42;24.97;;;9.83;;
17832;SDS011;9041;49.718;21.798;2023-04-27T00:23:08;26.30;;;10.20;;
17832;SDS011;9041;49.718;21.798;2023-04-27T00:25:37;24.27;;;8.93;;
17832;SDS011;9041;49.718;21.798;2023-04-27T00:28:04;20.83;;;8.97;;
17832;SDS011;9041;49.718;21.798;2023-04-27T00:30:31;27.67;;;9.73;;
17832;SDS011;9041;49.718;21.798;2023-04-27T00:32:58;26.00;;;9.13;;
17832;SDS011;9041;49.718;21.798;2023-04-27T00:35:25;20.60;;;9.03;;
17832;SDS011;9041;49.718;21.798;2023-04-27T00:37:52;18.27;;;8.67;;
17832;SDS011;9041;49.718;21.798;2023-04-27T00:40:20;25.67;;;9.27;;
17832;SDS011;9041;49.718;21.798;2023-04-27T00:42:48;19.47;;;8.53;;
17832;SDS011;9041;49.718;21.798;2023-04-27T00:45:15;25.47;;;9.30;;
17832;SDS011;9041;49.718;21.798;2023-04-27T00:47:50;25.87;;;8.93;;
17832;SDS011;9041;49.718;21.798;2023-04-27T00:50:17;21.80;;;8.40;;
17832;SDS011;9041;49.718;21.798;2023-04-27T00:52:49;16.60;;;7.97;;
17832;SDS011;9041;49.718;21.798;2023-04-27T00:55:16;18.67;;;7.93;;
17832;SDS011;9041;49.718;21.798;2023-04-27T00:57:43;21.07;;;8.20;;
17832;SDS011;9041;49.718;21.798;2023-04-27T01:00:12;23.03;;;8.20;;
17832;SDS011;9041;49.718;21.798;2023-04-27T01:02:39;17.73;;;8.43;;
17832;SDS011;9041;49.718;21.798;2023-04-27T01:05:07;21.50;;;8.43;;
17832;SDS011;9041;49.718;21.798;2023-04-27T01:07:35;19.00;;;8.07;;
17832;SDS011;9041;49.718;21.798;2023-04-27T01:10:03;16.70;;;8.20;;
17832;SDS011;9041;49.718;21.798;2023-04-27T01:12:31;21.43;;;8.00;;
17832;SDS011;9041;49.718;21.798;2023-04-27T01:14:58;20.47;;;7.83;;
17832;SDS011;9041;49.718;21.798;2023-04-27T01:17:26;19.30;;;7.77;;
17832;SDS011;9041;49.718;21.798;2023-04-27T01:19:52;21.00;;;8.20;;
17832;SDS011;9041;49.718;21.798;2023-04-27T01:22:20;19.47;;;7.70;;
17832;SDS011;9041;49.718;21.798;2023-04-27T01:24:48;18.80;;;8.50;;
17832;SDS011;9041;49.718;21.798;2023-04-27T01:27:15;17.63;;;8.07;;
17832;SDS011;9041;49.718;21.798;2023-04-27T01:29:42;16.77;;;8.23;;
17832;SDS011;9041;49.718;21.798;2023-04-27T01:32:09;17.63;;;7.33;;
17832;SDS011;9041;49.718;21.798;2023-04-27T01:34:37;21.73;;;7.33;;
17832;SDS011;9041;49.718;21.798;2023-04-27T01:37:03;20.07;;;8.10;;
17832;SDS011;9041;49.718;21.798;2023-04-27T01:39:30;18.30;;;7.70;;
17832;SDS011;9041;49.718;21.798;2023-04-27T01:41:59;17.00;;;6.97;;
17832;SDS011;9041;49.718;21.798;2023-04-27T01:44:27;17.40;;;7.17;;
17832;SDS011;9041;49.718;21.798;2023-04-27T01:46:54;18.73;;;7.53;;
17832;SDS011;9041;49.718;21.798;2023-04-27T01:49:21;19.90;;;8.00;;
17832;SDS011;9041;49.718;21.798;2023-04-27T01:51:47;23.23;;;7.57;;
17832;SDS011;9041;49.718;21.798;2023-04-27T01:54:14;18.70;;;7.80;;
17832;SDS011;9041;49.718;21.798;2023-04-27T01:56:41;24.30;;;8.23;;
17832;SDS011;9041;49.718;21.798;2023-04-27T01:59:09;18.17;;;7.67;;
17832;SDS011;9041;49.718;21.798;2023-04-27T02:01:36;18.97;;;7.93;;
17832;SDS011;9041;49.718;21.798;2023-04-27T02:04:03;20.37;;;7.37;;
17832;SDS011;9041;49.718;21.798;2023-04-27T02:06:30;20.30;;;7.70;;
17832;SDS011;9041;49.718;21.798;2023-04-27T02:08:56;19.97;;;7.63;;
17832;SDS011;9041;49.718;21.798;2023-04-27T02:11:27;14.50;;;7.03;;
17832;SDS011;9041;49.718;21.798;2023-04-27T02:13:54;16.40;;;7.17;;
17832;SDS011;9041;49.718;21.798;2023-04-27T02:16:22;17.37;;;7.73;;
17832;SDS011;9041;49.718;21.798;2023-04-27T02:18:49;15.27;;;6.93;;
17832;SDS011;9041;49.718;21.798;2023-04-27T02:21:18;18.73;;;7.03;;
17832;SDS011;9041;49.718;21.798;2023-04-27T02:23:45;15.90;;;7.30;;
17832;SDS011;9041;49.718;21.798;2023-04-27T02:26:14;16.40;;;7.00;;
17832;SDS011;9041;49.718;21.798;2023-04-27T02:28:42;22.47;;;7.60;;
17832;SDS011;9041;49.718;21.798;2023-04-27T02:31:10;17.73;;;7.27;;
17832;SDS011;9041;49.718;21.798;2023-04-27T02:33:38;13.93;;;7.30;;
17832;SDS011;9041;49.718;21.798;2023-04-27T02:36:05;20.57;;;7.37;;
17832;SDS011;9041;49.718;21.798;2023-04-27T02:38:33;20.13;;;7.30;;
17832;SDS011;9041;49.718;21.798;2023-04-27T02:41:00;13.33;;;7.20;;
17832;SDS011;9041;49.718;21.798;2023-04-27T02:43:26;16.13;;;6.73;;
17832;SDS011;9041;49.718;21.798;2023-04-27T02:45:53;16.47;;;7.47;;
17832;SDS011;9041;49.718;21.798;2023-04-27T02:48:20;17.97;;;7.63;;
17832;SDS011;9041;49.718;21.798;2023-04-27T02:50:48;19.03;;;7.20;;
17832;SDS011;9041;49.718;21.798;2023-04-27T02:53:15;17.10;;;7.17;;
17832;SDS011;9041;49.718;21.798;2023-04-27T02:55:44;20.00;;;7.77;;
17832;SDS011;9041;49.718;21.798;2023-04-27T02:58:11;15.90;;;7.13;;
17832;SDS011;9041;49.718;21.798;2023-04-27T03:00:38;19.40;;;7.73;;
17832;SDS011;9041;49.718;21.798;2023-04-27T03:03:05;20.20;;;7.77;;
17832;SDS011;9041;49.718;21.798;2023-04-27T03:05:33;16.43;;;7.17;;
17832;SDS011;9041;49.718;21.798;2023-04-27T03:08:04;16.00;;;7.67;;
17832;SDS011;9041;49.718;21.798;2023-04-27T03:10:31;18.57;;;7.63;;
17832;SDS011;9041;49.718;21.798;2023-04-27T03:12:58;14.97;;;7.03;;
17832;SDS011;9041;49.718;21.798;2023-04-27T03:15:25;13.77;;;6.93;;
17832;SDS011;9041;49.718;21.798;2023-04-27T03:17:51;19.60;;;7.20;;
17832;SDS011;9041;49.718;21.798;2023-04-27T03:20:18;18.70;;;8.00;;
17832;SDS011;9041;49.718;21.798;2023-04-27T03:22:46;15.27;;;7.10;;
17832;SDS011;9041;49.718;21.798;2023-04-27T03:25:14;21.73;;;7.63;;
17832;SDS011;9041;49.718;21.798;2023-04-27T03:27:41;13.20;;;6.50;;
17832;SDS011;9041;49.718;21.798;2023-04-27T03:30:08;17.90;;;7.43;;
17832;SDS011;9041;49.718;21.798;2023-04-27T03:32:36;16.50;;;6.73;;
17832;SDS011;9041;49.718;21.798;2023-04-27T03:35:03;16.63;;;7.47;;
17832;SDS011;9041;49.718;21.798;2023-04-27T03:37:31;18.60;;;7.10;;
17832;SDS011;9041;49.718;21.798;2023-04-27T03:39:58;14.87;;;6.87;;
17832;SDS011;9041;49.718;21.798;2023-04-27T03:42:26;17.10;;;6.63;;
17832;SDS011;9041;49.718;21.798;2023-04-27T03:44:53;15.60;;;6.70;;
17832;SDS011;9041;49.718;21.798;2023-04-27T03:47:20;14.90;;;6.47;;
17832;SDS011;9041;49.718;21.798;2023-04-27T03:49:47;15.90;;;7.20;;
17832;SDS011;9041;49.718;21.798;2023-04-27T03:52:13;16.00;;;6.90;;
17832;SDS011;9041;49.718;21.798;2023-04-27T03:54:40;19.87;;;7.50;;
17832;SDS011;9041;49.718;21.798;2023-04-27T03:57:07;14.13;;;6.57;;
17832;SDS011;9041;49.718;21.798;2023-04-27T03:59:35;12.20;;;6.90;;
17832;SDS011;9041;49.718;21.798;2023-04-27T04:02:02;21.40;;;8.60;;
17832;SDS011;9041;49.718;21.798;2023-04-27T04:04:29;23.53;;;8.53;;
17832;SDS011;9041;49.718;21.798;2023-04-27T04:06:56;18.17;;;8.37;;
17832;SDS011;9041;49.718;21.798;2023-04-27T04:09:23;16.80;;;7.47;;
17832;SDS011;9041;49.718;21.798;2023-04-27T04:11:50;18.73;;;7.70;;
17832;SDS011;9041;49.718;21.798;2023-04-27T04:14:17;18.53;;;7.03;;
17832;SDS011;9041;49.718;21.798;2023-04-27T04:16:45;18.93;;;7.17;;
17832;SDS011;9041;49.718;21.798;2023-04-27T04:19:12;17.70;;;7.37;;
17832;SDS011;9041;49.718;21.798;2023-04-27T04:21:38;17.00;;;7.03;;
17832;SDS011;9041;49.718;21.798;2023-04-27T04:24:05;16.40;;;6.93;;
17832;SDS011;9041;49.718;21.798;2023-04-27T04:26:34;20.33;;;7.13;;
17832;SDS011;9041;49.718;21.798;2023-04-27T04:29:01;15.60;;;7.37;;
17832;SDS011;9041;49.718;21.798;2023-04-27T04:31:29;14.60;;;7.33;;
17832;SDS011;9041;49.718;21.798;2023-04-27T04:33:59;16.27;;;6.90;;
17832;SDS011;9041;49.718;21.798;2023-04-27T04:36:27;14.27;;;7.30;;
17832;SDS011;9041;49.718;21.798;2023-04-27T04:38:54;17.30;;;7.00;;
17832;SDS011;9041;49.718;21.798;2023-04-27T04:41:22;16.27;;;6.93;;
17832;SDS011;9041;49.718;21.798;2023-04-27T04:43:49;16.73;;;6.90;;
17832;SDS011;9041;49.718;21.798;2023-04-27T04:46:16;16.90;;;7.37;;
17832;SDS011;9041;49.718;21.798;2023-04-27T04:48:43;15.03;;;6.70;;
17832;SDS011;9041;49.718;21.798;2023-04-27T04:51:12;15.67;;;7.70;;
17832;SDS011;9041;49.718;21.798;2023-04-27T04:53:39;14.17;;;7.20;;
17832;SDS011;9041;49.718;21.798;2023-04-27T04:56:09;20.27;;;7.53;;
17832;SDS011;9041;49.718;21.798;2023-04-27T04:58:36;19.23;;;7.07;;
17832;SDS011;9041;49.718;21.798;2023-04-27T05:01:03;16.93;;;7.37;;
17832;SDS011;9041;49.718;21.798;2023-04-27T05:03:30;14.13;;;6.87;;
17832;SDS011;9041;49.718;21.798;2023-04-27T05:05:57;19.17;;;7.80;;
17832;SDS011;9041;49.718;21.798;2023-04-27T05:08:25;18.23;;;6.73;;
17832;SDS011;9041;49.718;21.798;2023-04-27T05:10:52;21.10;;;6.70;;
17832;SDS011;9041;49.718;21.798;2023-04-27T05:13:19;13.47;;;6.47;;
17832;SDS011;9041;49.718;21.798;2023-04-27T05:15:45;15.27;;;6.43;;
17832;SDS011;9041;49.718;21.798;2023-04-27T05:18:12;15.70;;;6.90;;
17832;SDS011;9041;49.718;21.798;2023-04-27T05:20:39;15.33;;;6.90;;
17832;SDS011;9041;49.718;21.798;2023-04-27T05:23:06;15.63;;;6.47;;
17832;SDS011;9041;49.718;21.798;2023-04-27T05:25:34;17.37;;;6.93;;
17832;SDS011;9041;49.718;21.798;2023-04-27T05:28:05;19.30;;;6.73;;
17832;SDS011;9041;49.718;21.798;2023-04-27T05:30:32;20.67;;;6.90;;
17832;SDS011;9041;49.718;21.798;2023-04-27T05:33:00;17.37;;;6.40;;
17832;SDS011;9041;49.718;21.798;2023-04-27T05:35:27;15.43;;;6.40;;
17832;SDS011;9041;49.718;21.798;2023-04-27T05:37:54;21.57;;;7.20;;
17832;SDS011;9041;49.718;21.798;2023-04-27T05:40:21;19.50;;;6.97;;
17832;SDS011;9041;49.718;21.798;2023-04-27T05:42:49;14.30;;;5.90;;
17832;SDS011;9041;49.718;21.798;2023-04-27T05:45:16;10.93;;;6.23;;
17832;SDS011;9041;49.718;21.798;2023-04-27T05:47:42;20.83;;;6.47;;
17832;SDS011;9041;49.718;21.798;2023-04-27T05:50:09;15.93;;;6.00;;
17832;SDS011;9041;49.718;21.798;2023-04-27T05:52:36;17.60;;;6.53;;
17832;SDS011;9041;49.718;21.798;2023-04-27T05:55:05;12.70;;;6.73;;
17832;SDS011;9041;49.718;21.798;2023-04-27T05:57:32;20.57;;;6.50;;
17832;SDS011;9041;49.718;21.798;2023-04-27T06:00:01;13.73;;;6.50;;
17832;SDS011;9041;49.718;21.798;2023-04-27T06:02:32;16.80;;;6.70;;
17832;SDS011;9041;49.718;21.798;2023-04-27T06:04:59;18.53;;;6.57;;
17832;SDS011;9041;49.718;21.798;2023-04-27T06:07:26;17.87;;;7.03;;
17832;SDS011;9041;49.718;21.798;2023-04-27T06:10:03;13.70;;;6.63;;
17832;SDS011;9041;49.718;21.798;2023-04-27T06:12:31;18.03;;;5.83;;
17832;SDS011;9041;49.718;21.798;2023-04-27T06:14:58;18.60;;;6.60;;
17832;SDS011;9041;49.718;21.798;2023-04-27T06:17:28;15.07;;;6.57;;
17832;SDS011;9041;49.718;21.798;2023-04-27T06:19:55;18.07;;;6.67;;
17832;SDS011;9041;49.718;21.798;2023-04-27T06:22:22;16.37;;;6.13;;
17832;SDS011;9041;49.718;21.798;2023-04-27T06:24:48;18.67;;;6.03;;
17832;SDS011;9041;49.718;21.798;2023-04-27T06:27:15;13.30;;;6.33;;
17832;SDS011;9041;49.718;21.798;2023-04-27T06:29:42;15.20;;;6.70;;
17832;SDS011;9041;49.718;21.798;2023-04-27T06:32:09;15.00;;;6.53;;
17832;SDS011;9041;49.718;21.798;2023-04-27T06:34:38;15.13;;;6.83;;
17832;SDS011;9041;49.718;21.798;2023-04-27T06:37:05;13.80;;;6.60;;
17832;SDS011;9041;49.718;21.798;2023-04-27T06:39:32;14.43;;;6.60;;
17832;SDS011;9041;49.718;21.798;2023-04-27T06:41:58;18.67;;;6.63;;
17832;SDS011;9041;49.718;21.798;2023-04-27T06:44:25;18.37;;;6.33;;
17832;SDS011;9041;49.718;21.798;2023-04-27T06:46:52;14.87;;;6.33;;
17832;SDS011;9041;49.718;21.798;2023-04-27T06:49:19;20.10;;;6.93;;
17832;SDS011;9041;49.718;21.798;2023-04-27T06:51:47;21.20;;;6.27;;
17832;SDS011;9041;49.718;21.798;2023-04-27T06:54:14;16.13;;;6.60;;
17832;SDS011;9041;49.718;21.798;2023-04-27T06:56:41;18.73;;;6.53;;
17832;SDS011;9041;49.718;21.798;2023-04-27T06:59:08;16.70;;;6.10;;
17832;SDS011;9041;49.718;21.798;2023-04-27T07:01:35;20.33;;;6.40;;
17832;SDS011;9041;49.718;21.798;2023-04-27T07:04:02;14.90;;;6.00;;
17832;SDS011;9041;49.718;21.798;2023-04-27T07:06:29;12.13;;;6.50;;
17832;SDS011;9041;49.718;21.798;2023-04-27T07:09:02;16.55;;;6.32;;
17832;SDS011;9041;49.718;21.798;2023-04-27T07:11:33;13.20;;;6.20;;
17832;SDS011;9041;49.718;21.798;2023-04-27T07:14:00;19.98;;;7.18;;
17832;SDS011;9041;49.718;21.798;2023-04-27T07:16:27;17.92;;;7.03;;
17832;SDS011;9041;49.718;21.798;2023-04-27T07:18:53;14.82;;;6.22;;
17832;SDS011;9041;49.718;21.798;2023-04-27T07:21:20;18.35;;;6.95;;
17832;SDS011;9041;49.718;21.798;2023-04-27T07:23:47;16.70;;;6.10;;
17832;SDS011;9041;49.718;21.798;2023-04-27T07:26:15;15.93;;;6.50;;
17832;SDS011;9041;49.718;21.798;2023-04-27T07:28:42;15.02;;;6.10;;
17832;SDS011;9041;49.718;21.798;2023-04-27T07:31:11;14.23;;;5.82;;
17832;SDS011;9041;49.718;21.798;2023-04-27T07:33:38;17.40;;;5.72;;
17832;SDS011;9041;49.718;21.798;2023-04-27T07:36:06;11.95;;;4.63;;
17832;SDS011;9041;49.718;21.798;2023-04-27T07:38:37;12.77;;;5.50;;
17832;SDS011;9041;49.718;21.798;2023-04-27T07:41:04;14.45;;;5.53;;
17832;SDS011;9041;49.718;21.798;2023-04-27T07:43:33;14.38;;;5.20;;
17832;SDS011;9041;49.718;21.798;2023-04-27T07:46:00;9.95;;;4.30;;
17832;SDS011;9041;49.718;21.798;2023-04-27T07:48:27;16.38;;;4.90;;
17832;SDS011;9041;49.718;21.798;2023-04-27T07:50:54;14.35;;;4.72;;
17832;SDS011;9041;49.718;21.798;2023-04-27T07:53:21;10.18;;;4.13;;
17832;SDS011;9041;49.718;21.798;2023-04-27T07:55:48;9.90;;;4.13;;
17832;SDS011;9041;49.718;21.798;2023-04-27T07:58:15;15.30;;;4.88;;
17832;SDS011;9041;49.718;21.798;2023-04-27T08:00:45;16.98;;;4.70;;
17832;SDS011;9041;49.718;21.798;2023-04-27T08:03:12;7.82;;;3.53;;
17832;SDS011;9041;49.718;21.798;2023-04-27T08:05:39;13.98;;;4.07;;
17832;SDS011;9041;49.718;21.798;2023-04-27T08:08:06;10.60;;;3.88;;
17832;SDS011;9041;49.718;21.798;2023-04-27T08:10:32;16.25;;;4.30;;
17832;SDS011;9041;49.718;21.798;2023-04-27T08:12:59;10.18;;;4.20;;
17832;SDS011;9041;49.718;21.798;2023-04-27T08:15:26;9.38;;;3.70;;
17832;SDS011;9041;49.718;21.798;2023-04-27T08:17:54;12.85;;;3.95;;
17832;SDS011;9041;49.718;21.798;2023-04-27T08:20:21;21.30;;;6.55;;
17832;SDS011;9041;49.718;21.798;2023-04-27T08:22:49;20.73;;;6.28;;
17832;SDS011;9041;49.718;21.798;2023-04-27T08:25:16;28.08;;;5.93;;
17832;SDS011;9041;49.718;21.798;2023-04-27T08:27:43;10.52;;;3.92;;
17832;SDS011;9041;49.718;21.798;2023-04-27T08:30:10;9.90;;;3.58;;
17832;SDS011;9041;49.718;21.798;2023-04-27T08:32:37;12.48;;;2.78;;
17832;SDS011;9041;49.718;21.798;2023-04-27T08:35:05;9.93;;;2.90;;
17832;SDS011;9041;49.718;21.798;2023-04-27T08:37:33;5.75;;;2.63;;
17832;SDS011;9041;49.718;21.798;2023-04-27T08:40:02;7.88;;;2.97;;
17832;SDS011;9041;49.718;21.798;2023-04-27T08:42:30;9.82;;;2.72;;
17832;SDS011;9041;49.718;21.798;2023-04-27T08:44:56;6.32;;;2.78;;
17832;SDS011;9041;49.718;21.798;2023-04-27T08:47:23;11.30;;;3.42;;
17832;SDS011;9041;49.718;21.798;2023-04-27T08:49:50;7.63;;;3.30;;
17832;SDS011;9041;49.718;21.798;2023-04-27T08:52:18;12.57;;;2.85;;
17832;SDS011;9041;49.718;21.798;2023-04-27T08:54:45;8.50;;;2.97;;
17832;SDS011;9041;49.718;21.798;2023-04-27T08:57:12;8.18;;;3.67;;
17832;SDS011;9041;49.718;21.798;2023-04-27T08:59:40;10.10;;;4.38;;
17832;SDS011;9041;49.718;21.798;2023-04-27T09:02:16;13.55;;;3.83;;
17832;SDS011;9041;49.718;21.798;2023-04-27T09:04:44;8.73;;;2.72;;
17832;SDS011;9041;49.718;21.798;2023-04-27T09:07:11;8.63;;;2.65;;
17832;SDS011;9041;49.718;21.798;2023-04-27T09:09:40;8.00;;;3.05;;
17832;SDS011;9041;49.718;21.798;2023-04-27T09:12:14;10.07;;;3.15;;
17832;SDS011;9041;49.718;21.798;2023-04-27T09:14:41;7.38;;;2.70;;
17832;SDS011;9041;49.718;21.798;2023-04-27T09:17:09;7.63;;;2.72;;
17832;SDS011;9041;49.718;21.798;2023-04-27T09:19:36;9.02;;;2.95;;
17832;SDS011;9041;49.718;21.798;2023-04-27T09:22:04;8.73;;;3.17;;
17832;SDS011;9041;49.718;21.798;2023-04-27T09:24:32;16.13;;;3.80;;
17832;SDS011;9041;49.718;21.798;2023-04-27T09:27:00;19.48;;;3.70;;
17832;SDS011;9041;49.718;21.798;2023-04-27T09:29:32;5.70;;;2.28;;
17832;SDS011;9041;49.718;21.798;2023-04-27T09:31:59;17.05;;;5.07;;
17832;SDS011;9041;49.718;21.798;2023-04-27T09:34:36;34.75;;;6.90;;
17832;SDS011;9041;49.718;21.798;2023-04-27T09:37:03;11.52;;;3.35;;
17832;SDS011;9041;49.718;21.798;2023-04-27T09:39:31;11.80;;;3.22;;
17832;SDS011;9041;49.718;21.798;2023-04-27T09:41:58;25.05;;;5.60;;
17832;SDS011;9041;49.718;21.798;2023-04-27T09:44:27;11.77;;;4.13;;
17832;SDS011;9041;49.718;21.798;2023-04-27T09:46:54;5.07;;;1.92;;
17832;SDS011;9041;49.718;21.798;2023-04-27T09:49:23;6.68;;;3.30;;
17832;SDS011;9041;49.718;21.798;2023-04-27T09:51:52;7.93;;;3.03;;
17832;SDS011;9041;49.718;21.798;2023-04-27T09:54:20;7.28;;;3.05;;
17832;SDS011;9041;49.718;21.798;2023-04-27T09:56:49;10.50;;;2.35;;
17832;SDS011;9041;49.718;21.798;2023-04-27T09:59:24;59.88;;;9.35;;
17832;SDS011;9041;49.718;21.798;2023-04-27T10:02:01;332.73;;;40.55;;
17832;SDS011;9041;49.718;21.798;2023-04-27T10:04:41;23.55;;;5.85;;
17832;SDS011;9041;49.718;21.798;2023-04-27T10:07:15;6.07;;;2.83;;
17832;SDS011;9041;49.718;21.798;2023-04-27T10:09:44;7.07;;;2.40;;
17832;SDS011;9041;49.718;21.798;2023-04-27T10:12:12;5.25;;;2.55;;
17832;SDS011;9041;49.718;21.798;2023-04-27T10:14:48;8.10;;;2.60;;
17832;SDS011;9041;49.718;21.798;2023-04-27T10:17:16;5.75;;;2.45;;
17832;SDS011;9041;49.718;21.798;2023-04-27T10:19:51;8.05;;;2.50;;
17832;SDS011;9041;49.718;21.798;2023-04-27T10:22:19;4.63;;;2.70;;
17832;SDS011;9041;49.718;21.798;2023-04-27T10:24:47;8.40;;;3.10;;
17832;SDS011;9041;49.718;21.798;2023-04-27T10:27:15;5.57;;;2.55;;
17832;SDS011;9041;49.718;21.798;2023-04-27T10:29:44;4.22;;;1.98;;
17832;SDS011;9041;49.718;21.798;2023-04-27T10:32:17;5.47;;;2.58;;
17832;SDS011;9041;49.718;21.798;2023-04-27T10:34:45;5.28;;;2.55;;
17832;SDS011;9041;49.718;21.798;2023-04-27T10:37:13;3.40;;;1.95;;
17832;SDS011;9041;49.718;21.798;2023-04-27T10:39:41;4.95;;;2.00;;
17832;SDS011;9041;49.718;21.798;2023-04-27T10:42:09;9.13;;;1.80;;
17832;SDS011;9041;49.718;21.798;2023-04-27T10:44:37;2.72;;;1.88;;
17832;SDS011;9041;49.718;21.798;2023-04-27T10:47:11;3.55;;;1.73;;
17832;SDS011;9041;49.718;21.798;2023-04-27T10:49:40;5.72;;;2.30;;
17832;SDS011;9041;49.718;21.798;2023-04-27T10:52:07;7.05;;;2.35;;
17832;SDS011;9041;49.718;21.798;2023-04-27T10:54:34;7.60;;;2.15;;
17832;SDS011;9041;49.718;21.798;2023-04-27T10:57:02;3.55;;;2.10;;
17832;SDS011;9041;49.718;21.798;2023-04-27T10:59:31;4.47;;;2.20;;
17832;SDS011;9041;49.718;21.798;2023-04-27T11:01:58;7.03;;;2.33;;
17832;SDS011;9041;49.718;21.798;2023-04-27T11:07:08;5.45;;;2.33;;
17832;SDS011;9041;49.718;21.798;2023-04-27T11:09:35;10.68;;;2.30;;
17832;SDS011;9041;49.718;21.798;2023-04-27T11:12:04;5.70;;;2.30;;
17832;SDS011;9041;49.718;21.798;2023-04-27T11:14:32;3.63;;;2.22;;
17832;SDS011;9041;49.718;21.798;2023-04-27T11:17:00;6.10;;;2.15;;
17832;SDS011;9041;49.718;21.798;2023-04-27T11:19:28;4.15;;;2.30;;
17832;SDS011;9041;49.718;21.798;2023-04-27T11:22:02;7.43;;;2.35;;
17832;SDS011;9041;49.718;21.798;2023-04-27T11:24:30;7.25;;;2.03;;
17832;SDS011;9041;49.718;21.798;2023-04-27T11:26:57;6.70;;;2.05;;
17832;SDS011;9041;49.718;21.798;2023-04-27T11:29:24;12.82;;;2.35;;
17832;SDS011;9041;49.718;21.798;2023-04-27T11:31:51;11.13;;;2.42;;
17832;SDS011;9041;49.718;21.798;2023-04-27T11:34:18;5.78;;;2.17;;
17832;SDS011;9041;49.718;21.798;2023-04-27T11:36:55;12.38;;;2.65;;
17832;SDS011;9041;49.718;21.798;2023-04-27T11:39:23;4.75;;;2.13;;
17832;SDS011;9041;49.718;21.798;2023-04-27T11:41:52;4.82;;;2.30;;
17832;SDS011;9041;49.718;21.798;2023-04-27T11:44:24;7.47;;;2.20;;
17832;SDS011;9041;49.718;21.798;2023-04-27T11:46:51;5.97;;;2.17;;
17832;SDS011;9041;49.718;21.798;2023-04-27T11:49:18;4.32;;;1.98;;
17832;SDS011;9041;49.718;21.798;2023-04-27T11:51:45;3.67;;;1.92;;
17832;SDS011;9041;49.718;21.798;2023-04-27T11:54:12;4.93;;;2.25;;
17832;SDS011;9041;49.718;21.798;2023-04-27T11:56:41;6.75;;;2.35;;
17832;SDS011;9041;49.718;21.798;2023-04-27T11:59:18;5.22;;;2.08;;
17832;SDS011;9041;49.718;21.798;2023-04-27T12:01:47;6.13;;;2.55;;
17832;SDS011;9041;49.718;21.798;2023-04-27T12:04:13;4.63;;;2.50;;
17832;SDS011;9041;49.718;21.798;2023-04-27T12:06:40;6.57;;;2.42;;
17832;SDS011;9041;49.718;21.798;2023-04-27T12:09:07;4.65;;;2.45;;
17832;SDS011;9041;49.718;21.798;2023-04-27T12:11:34;5.50;;;3.00;;
17832;SDS011;9041;49.718;21.798;2023-04-27T12:14:02;8.13;;;2.70;;
17832;SDS011;9041;49.718;21.798;2023-04-27T12:16:29;5.32;;;2.40;;
17832;SDS011;9041;49.718;21.798;2023-04-27T12:18:56;7.05;;;2.42;;
17832;SDS011;9041;49.718;21.798;2023-04-27T12:21:22;5.43;;;2.58;;
17832;SDS011;9041;49.718;21.798;2023-04-27T12:23:49;6.18;;;2.75;;
17832;SDS011;9041;49.718;21.798;2023-04-27T12:26:16;6.55;;;2.60;;
17832;SDS011;9041;49.718;21.798;2023-04-27T12:28:44;9.05;;;2.40;;
17832;SDS011;9041;49.718;21.798;2023-04-27T12:31:14;5.07;;;2.28;;
17832;SDS011;9041;49.718;21.798;2023-04-27T12:33:42;8.20;;;3.13;;
17832;SDS011;9041;49.718;21.798;2023-04-27T12:36:09;6.90;;;2.33;;
17832;SDS011;9041;49.718;21.798;2023-04-27T12:38:36;5.78;;;2.40;;
17832;SDS011;9041;49.718;21.798;2023-04-27T12:41:03;4.45;;;2.40;;
17832;SDS011;9041;49.718;21.798;2023-04-27T12:43:30;4.68;;;2.38;;
17832;SDS011;9041;49.718;21.798;2023-04-27T12:45:56;6.60;;;2.50;;
17832;SDS011;9041;49.718;21.798;2023-04-27T12:48:25;6.63;;;2.20;;
17832;SDS011;9041;49.718;21.798;2023-04-27T12:50:51;4.88;;;2.20;;
17832;SDS011;9041;49.718;21.798;2023-04-27T12:53:18;8.30;;;2.78;;
17832;SDS011;9041;49.718;21.798;2023-04-27T12:55:46;5.13;;;2.45;;
17832;SDS011;9041;49.718;21.798;2023-04-27T12:58:13;6.10;;;2.25;;
17832;SDS011;9041;49.718;21.798;2023-04-27T13:00:39;5.65;;;2.20;;
17832;SDS011;9041;49.718;21.798;2023-04-27T13:03:06;9.10;;;2.38;;
17832;SDS011;9041;49.718;21.798;2023-04-27T13:05:35;4.25;;;2.50;;
17832;SDS011;9041;49.718;21.798;2023-04-27T13:08:01;10.93;;;2.63;;
17832;SDS011;9041;49.718;21.798;2023-04-27T13:10:28;9.25;;;2.78;;
17832;SDS011;9041;49.718;21.798;2023-04-27T13:12:56;9.85;;;2.88;;
17832;SDS011;9041;49.718;21.798;2023-04-27T13:15:23;7.28;;;2.55;;
17832;SDS011;9041;49.718;21.798;2023-04-27T13:17:50;5.47;;;2.35;;
17832;SDS011;9041;49.718;21.798;2023-04-27T13:20:18;10.27;;;2.58;;
17832;SDS011;9041;49.718;21.798;2023-04-27T13:22:47;4.22;;;2.35;;
17832;SDS011;9041;49.718;21.798;2023-04-27T13:25:14;8.93;;;2.60;;
17832;SDS011;9041;49.718;21.798;2023-04-27T13:27:41;8.40;;;2.80;;
17832;SDS011;9041;49.718;21.798;2023-04-27T13:30:08;7.15;;;3.08;;
17832;SDS011;9041;49.718;21.798;2023-04-27T13:32:35;6.75;;;2.60;;
17832;SDS011;9041;49.718;21.798;2023-04-27T13:35:02;6.88;;;2.95;;
17832;SDS011;9041;49.718;21.798;2023-04-27T13:37:30;5.70;;;2.60;;
17832;SDS011;9041;49.718;21.798;2023-04-27T13:39:58;6.60;;;3.22;;
17832;SDS011;9041;49.718;21.798;2023-04-27T13:42:25;4.03;;;2.63;;
17832;SDS011;9041;49.718;21.798;2023-04-27T13:44:53;3.80;;;2.20;;
17832;SDS011;9041;49.718;21.798;2023-04-27T13:47:20;4.32;;;2.50;;
17832;SDS011;9041;49.718;21.798;2023-04-27T13:49:48;6.90;;;2.83;;
17832;SDS011;9041;49.718;21.798;2023-04-27T13:52:15;7.72;;;2.85;;
17832;SDS011;9041;49.718;21.798;2023-04-27T13:54:41;5.57;;;2.35;;
17832;SDS011;9041;49.718;21.798;2023-04-27T13:57:09;6.20;;;2.63;;
17832;SDS011;9041;49.718;21.798;2023-04-27T13:59:36;7.63;;;2.80;;
17832;SDS011;9041;49.718;21.798;2023-04-27T14:02:03;6.07;;;2.47;;
17832;SDS011;9041;49.718;21.798;2023-04-27T14:04:30;10.57;;;2.85;;
17832;SDS011;9041;49.718;21.798;2023-04-27T14:06:57;6.45;;;2.90;;
17832;SDS011;9041;49.718;21.798;2023-04-27T14:09:24;5.35;;;2.50;;
17832;SDS011;9041;49.718;21.798;2023-04-27T14:11:51;7.47;;;2.67;;
17832;SDS011;9041;49.718;21.798;2023-04-27T14:14:19;6.18;;;2.67;;
17832;SDS011;9041;49.718;21.798;2023-04-27T14:16:46;9.05;;;2.30;;
17832;SDS011;9041;49.718;21.798;2023-04-27T14:19:13;8.68;;;2.40;;
17832;SDS011;9041;49.718;21.798;2023-04-27T14:21:40;7.40;;;2.88;;
17832;SDS011;9041;49.718;21.798;2023-04-27T14:24:06;6.85;;;2.45;;
17832;SDS011;9041;49.718;21.798;2023-04-27T14:26:33;6.35;;;2.75;;
17832;SDS011;9041;49.718;21.798;2023-04-27T14:29:00;5.95;;;3.13;;
17832;SDS011;9041;49.718;21.798;2023-04-27T14:31:28;7.82;;;3.08;;
17832;SDS011;9041;49.718;21.798;2023-04-27T14:33:55;6.82;;;2.92;;
17832;SDS011;9041;49.718;21.798;2023-04-27T14:36:22;6.18;;;3.17;;
17832;SDS011;9041;49.718;21.798;2023-04-27T14:38:49;5.43;;;3.17;;
17832;SDS011;9041;49.718;21.798;2023-04-27T14:41:15;5.30;;;2.90;;
17832;SDS011;9041;49.718;21.798;2023-04-27T14:43:42;6.65;;;2.80;;